Hlavní strana
METAR-TAF:

METAR-TAF

Letiště :

Burlington-Alamance Regional Airport

Burlington, Severní Karolína, Spojené státy americké

zeměpisná šířka: 36-02-52N, zeměpisná délka: 079-28-26W, výška: 188 m

Aktuální stav počasí

Zpráva byla vytvořena před 1 hodinou a 9 minutami, v 23:54 UTC
Jihojihovýchodní vítr 4 kt
Teplota 22°C
Vlhkost vzduchu 83%
Tlak 1017 hPa
Viditelnost: 16.1 km
Polojasno ve výšce 12000 ft

METAR: KBUY 292354Z AUTO 16004KT 10SM SCT120 22/19 A3003 RMK AO2 SLP164 60009 T02220194 10250 20222 53007

Čas: 21:03 (01:03 UTC)


TAF: chybějící

Stav a předpovědi počasí z více než 4 000 letišť (zprávy METAR a TAF).

Červené a žluté tečky na mapě představují dostupné meteorologické stanice.

Když kurzor umístíte na tečku, zobrazí se název stanice.

Pak kliknutím zobrazíte stav a předpověď počasí.

Chcete-li změnit mapu, kliknutím na zelené tlačítko se znaménkem +mapu přiblížíte, kliknutím na zelené tlačítko se znaménkem – mapu oddálíte a kliknutím na zelené šipky přejdete na sousední mapy.


METAR-TAF: